Weather at Sampit (Hasan) Airport

Public forecast

Using degrees Celsius for public forecast. Weather courtesy of forecast.io.

Closest aviation weather report (METAR) to Sampit (Hasan) Airport

Closest report is Syamsudin Noor International Airport, 121.2 nm (224.5 km) ESE.

2024/07/25 19:00 (retrieved 38 minutes ago)

WAOO 251900Z AUTO 00000KT 9999 NCD 24/23 Q1008

Closest aviation forecast (TAF) to Sampit (Hasan) Airport

Closest forecast is Syamsudin Noor International Airport, 121.2 nm (224.5 km) ESE.

2024/07/25 18:50 (retrieved 48 minutes ago)

TAF WAOO 251700Z 2518/2618 15006KT 9000 SCT020